createdAt,value
2023-05-07T00:00:49.123Z,12.30
2023-05-07T00:03:17.298Z,12.20
2023-05-07T00:05:45.146Z,12.20
2023-05-07T00:08:13.257Z,12.10
2023-05-07T00:10:41.456Z,12.10
2023-05-07T00:13:10.665Z,12.00
2023-05-07T00:15:38.515Z,12.10
2023-05-07T00:18:06.712Z,12.10
2023-05-07T00:20:36.117Z,12.10
2023-05-07T00:23:04.125Z,12.10
2023-05-07T00:25:31.945Z,12.10
2023-05-07T00:28:04.467Z,12.10
2023-05-07T00:30:33.912Z,12.10
2023-05-07T00:33:01.753Z,12.00
2023-05-07T00:35:30.679Z,11.90
2023-05-07T00:37:58.744Z,12.00
2023-05-07T00:40:26.583Z,12.00
2023-05-07T00:42:57.604Z,12.00
2023-05-07T00:45:27.964Z,12.10
2023-05-07T00:47:59.241Z,12.10
2023-05-07T00:50:27.611Z,12.10
2023-05-07T00:52:55.725Z,12.00
2023-05-07T00:55:24.349Z,12.00
2023-05-07T00:57:52.775Z,12.00
2023-05-07T01:00:20.901Z,11.90
2023-05-07T01:02:48.820Z,11.90
2023-05-07T01:05:20.834Z,12.00
2023-05-07T01:07:50.108Z,11.90
2023-05-07T01:10:19.224Z,11.90
2023-05-07T01:12:48.628Z,12.00
2023-05-07T01:15:16.860Z,12.10
2023-05-07T01:17:45.018Z,12.10
2023-05-07T01:20:13.971Z,12.10
2023-05-07T01:22:44.869Z,12.10
2023-05-07T01:25:12.690Z,12.10
2023-05-07T01:27:40.586Z,12.10
2023-05-07T01:30:09.791Z,12.20
2023-05-07T01:32:43.034Z,12.10
2023-05-07T01:35:13.551Z,12.20
2023-05-07T01:37:43.499Z,12.10
2023-05-07T01:40:12.545Z,12.10
2023-05-07T01:42:40.920Z,12.10
2023-05-07T01:45:09.526Z,12.00
2023-05-07T01:47:39.022Z,12.00
2023-05-07T01:50:09.230Z,12.00
2023-05-07T01:52:38.214Z,11.90
2023-05-07T01:55:08.937Z,12.10
2023-05-07T01:57:36.742Z,12.10
2023-05-07T02:00:07.180Z,12.00
2023-05-07T02:02:35.134Z,12.00
2023-05-07T02:05:03.292Z,11.90
2023-05-07T02:07:31.089Z,12.00
2023-05-07T02:09:58.926Z,12.00
2023-05-07T02:12:28.103Z,12.00
2023-05-07T02:14:56.147Z,12.10
2023-05-07T02:17:23.982Z,12.00
2023-05-07T02:19:51.858Z,12.00
2023-05-07T02:22:20.198Z,11.90
2023-05-07T02:24:47.980Z,11.90
2023-05-07T02:27:15.776Z,11.90
2023-05-07T02:29:44.931Z,11.80
2023-05-07T02:32:12.869Z,11.80
2023-05-07T02:34:40.691Z,11.90
2023-05-07T02:37:08.505Z,11.90
2023-05-07T02:39:36.298Z,11.90
2023-05-07T02:42:04.172Z,11.90
2023-05-07T02:44:32.534Z,11.90
2023-05-07T02:47:01.790Z,11.80
2023-05-07T02:49:29.547Z,11.80
2023-05-07T02:51:57.365Z,11.80
2023-05-07T02:54:25.322Z,11.70
2023-05-07T02:56:53.203Z,11.70
2023-05-07T02:59:20.985Z,11.70
2023-05-07T03:01:49.348Z,11.60
2023-05-07T03:04:18.549Z,11.80
2023-05-07T03:06:46.385Z,11.70
2023-05-07T03:09:14.295Z,11.60
2023-05-07T03:11:42.058Z,11.60
2023-05-07T03:14:09.868Z,11.70
2023-05-07T03:16:38.090Z,11.60
2023-05-07T03:19:06.252Z,11.60
2023-05-07T03:21:35.744Z,11.60
2023-05-07T03:24:03.739Z,11.70
2023-05-07T03:26:31.499Z,11.70
2023-05-07T03:28:59.315Z,11.70
2023-05-07T03:31:27.133Z,11.60
2023-05-07T03:33:56.114Z,11.50
2023-05-07T03:36:24.310Z,11.50
2023-05-07T03:38:53.445Z,11.50
2023-05-07T03:41:21.372Z,11.50
2023-05-07T03:43:49.141Z,11.60
2023-05-07T03:46:16.967Z,11.60
2023-05-07T03:48:44.753Z,11.60
2023-05-07T03:51:12.574Z,11.60
2023-05-07T03:53:40.334Z,11.60
2023-05-07T03:56:09.472Z,11.70
2023-05-07T03:58:37.304Z,11.60
2023-05-07T04:01:05.649Z,11.50
2023-05-07T04:03:33.517Z,11.40
2023-05-07T04:06:01.725Z,11.30
2023-05-07T04:08:29.492Z,11.30
2023-05-07T04:10:57.561Z,11.40
2023-05-07T04:13:26.894Z,11.50
2023-05-07T04:15:54.686Z,11.50
2023-05-07T04:18:22.464Z,11.40
2023-05-07T04:20:50.863Z,11.40
2023-05-07T04:23:18.677Z,11.40
2023-05-07T04:25:47.098Z,11.50
2023-05-07T04:28:15.545Z,11.50
2023-05-07T04:30:44.683Z,11.60
2023-05-07T04:33:12.606Z,11.70
2023-05-07T04:35:40.565Z,11.70
2023-05-07T04:38:08.447Z,11.70
2023-05-07T04:40:37.761Z,11.80
2023-05-07T04:43:05.749Z,11.70
2023-05-07T04:45:34.086Z,11.80
2023-05-07T04:48:03.371Z,11.90
2023-05-07T04:50:31.560Z,12.00
2023-05-07T04:52:59.358Z,12.00
2023-05-07T04:55:27.134Z,12.00
2023-05-07T04:57:55.439Z,12.00
2023-05-07T05:00:23.824Z,12.10
2023-05-07T05:02:51.757Z,12.20
2023-05-07T05:05:21.604Z,12.20
2023-05-07T05:07:49.375Z,12.20
2023-05-07T05:10:17.132Z,12.40
2023-05-07T05:12:45.216Z,12.50
2023-05-07T05:15:13.619Z,12.50
2023-05-07T05:17:41.636Z,12.50
2023-05-07T05:20:11.158Z,12.60
2023-05-07T05:22:40.454Z,12.60
2023-05-07T05:25:08.810Z,12.60
2023-05-07T05:27:36.872Z,12.90
2023-05-07T05:30:06.308Z,13.00
2023-05-07T05:32:34.754Z,13.20
2023-05-07T05:35:03.054Z,13.10
2023-05-07T05:37:32.273Z,13.20
2023-05-07T05:40:01.407Z,13.40
2023-05-07T05:42:29.196Z,13.50
2023-05-07T05:44:56.995Z,13.70
2023-05-07T05:47:25.308Z,13.80
2023-05-07T05:49:53.155Z,13.90
2023-05-07T05:52:21.051Z,14.00
2023-05-07T05:54:48.870Z,14.10
2023-05-07T05:57:18.234Z,14.30
2023-05-07T05:59:46.163Z,14.40
2023-05-07T06:02:14.066Z,14.50
2023-05-07T06:04:43.517Z,14.60
2023-05-07T06:07:11.591Z,14.80
2023-05-07T06:09:39.454Z,14.90
2023-05-07T06:12:08.083Z,15.00
2023-05-07T06:14:37.846Z,15.00
2023-05-07T06:17:06.224Z,15.10
2023-05-07T06:19:34.218Z,15.20
2023-05-07T06:22:03.439Z,15.30
2023-05-07T06:24:31.260Z,15.40
2023-05-07T06:26:59.458Z,15.60
2023-05-07T06:29:28.006Z,15.70
2023-05-07T06:31:57.231Z,15.70
2023-05-07T06:34:25.056Z,15.90
2023-05-07T06:36:52.900Z,16.00
2023-05-07T06:39:20.876Z,16.20
2023-05-07T06:41:48.843Z,16.40
2023-05-07T06:44:16.680Z,16.60
2023-05-07T06:46:44.575Z,16.80
2023-05-07T06:49:14.879Z,16.90
2023-05-07T06:51:43.082Z,17.00
2023-05-07T06:54:10.933Z,17.10
2023-05-07T06:56:38.773Z,17.20
2023-05-07T06:59:06.637Z,17.30
2023-05-07T07:01:34.554Z,17.40
2023-05-07T07:04:02.496Z,17.40
2023-05-07T07:06:32.617Z,17.40
2023-05-07T07:09:00.745Z,17.60
2023-05-07T07:11:28.816Z,17.70
2023-05-07T07:13:56.608Z,17.90
2023-05-07T07:16:24.608Z,17.90
2023-05-07T07:18:53.045Z,17.80
2023-05-07T07:21:20.834Z,18.00
2023-05-07T07:23:49.988Z,18.10
2023-05-07T07:26:17.836Z,18.20
2023-05-07T07:28:46.098Z,18.20
2023-05-07T07:31:14.483Z,18.30
2023-05-07T07:33:42.635Z,18.40
2023-05-07T07:36:11.701Z,18.40
2023-05-07T07:38:39.506Z,18.60
2023-05-07T07:41:10.640Z,18.60
2023-05-07T07:43:38.381Z,18.70
2023-05-07T07:46:06.297Z,18.80
2023-05-07T07:48:34.137Z,18.80
2023-05-07T07:51:01.936Z,18.90
2023-05-07T07:53:29.685Z,18.90
2023-05-07T07:55:59.472Z,19.00
2023-05-07T07:58:28.962Z,19.10
2023-05-07T08:00:57.352Z,19.10
2023-05-07T08:03:25.293Z,19.20
2023-05-07T08:05:53.181Z,19.40
2023-05-07T08:08:20.961Z,19.30
2023-05-07T08:10:50.902Z,19.50
2023-05-07T08:13:19.339Z,19.40
2023-05-07T08:15:48.831Z,19.60
2023-05-07T08:18:16.980Z,19.50
2023-05-07T08:20:44.759Z,19.40
2023-05-07T08:23:12.597Z,19.60
2023-05-07T08:25:41.023Z,19.60
2023-05-07T08:28:10.063Z,19.70
2023-05-07T08:30:38.187Z,19.80
2023-05-07T08:33:07.469Z,19.80
2023-05-07T08:35:35.361Z,19.90
2023-05-07T08:38:03.222Z,20.00
2023-05-07T08:40:31.106Z,20.00
2023-05-07T08:42:59.931Z,20.00
2023-05-07T08:45:29.930Z,20.10
2023-05-07T08:48:01.618Z,20.20
2023-05-07T08:50:31.622Z,20.20
2023-05-07T08:53:00.908Z,20.30
2023-05-07T08:55:31.017Z,20.20
2023-05-07T08:57:58.919Z,20.40
2023-05-07T09:00:26.982Z,20.40
2023-05-07T09:02:55.361Z,20.40
2023-05-07T09:05:23.157Z,20.50
2023-05-07T09:07:54.478Z,20.40
2023-05-07T09:10:23.249Z,20.50
2023-05-07T09:12:51.064Z,20.70
2023-05-07T09:15:19.655Z,20.80
2023-05-07T09:17:50.555Z,20.90
2023-05-07T09:20:18.750Z,20.90
2023-05-07T09:22:46.794Z,21.00
2023-05-07T09:25:15.949Z,21.00
2023-05-07T09:27:44.464Z,20.90
2023-05-07T09:30:13.275Z,20.80
2023-05-07T09:32:41.173Z,20.80
2023-05-07T09:35:17.433Z,20.80
2023-05-07T09:37:45.669Z,20.90
2023-05-07T09:40:24.222Z,21.00
2023-05-07T09:42:52.363Z,21.10
2023-05-07T09:45:24.093Z,21.10
2023-05-07T09:47:55.412Z,21.10
2023-05-07T09:50:27.722Z,21.10
2023-05-07T09:52:56.362Z,21.10
2023-05-07T09:55:25.892Z,21.20
2023-05-07T09:57:56.447Z,21.40
2023-05-07T10:00:24.741Z,21.30
2023-05-07T10:02:54.303Z,21.30
2023-05-07T10:05:23.361Z,21.40
2023-05-07T10:07:52.819Z,21.30
2023-05-07T10:10:21.179Z,21.20
2023-05-07T10:12:51.653Z,21.20
2023-05-07T10:15:19.850Z,21.20
2023-05-07T10:17:48.644Z,21.30
2023-05-07T10:20:16.677Z,21.30
2023-05-07T10:22:47.336Z,21.40
2023-05-07T10:25:18.649Z,21.30
2023-05-07T10:27:48.462Z,21.30
2023-05-07T10:30:33.500Z,21.30
2023-05-07T10:33:07.482Z,21.60
2023-05-07T10:35:47.285Z,21.60
2023-05-07T10:38:15.404Z,21.60
2023-05-07T10:40:43.752Z,21.70
2023-05-07T10:43:11.634Z,21.90
2023-05-07T10:45:40.803Z,21.80
2023-05-07T10:50:44.588Z,21.50
2023-05-07T10:53:27.471Z,21.60
2023-05-07T10:56:31.470Z,21.70
2023-05-07T10:59:33.329Z,22.00
2023-05-07T11:02:05.080Z,22.00
2023-05-07T11:04:35.819Z,21.90
2023-05-07T11:07:31.844Z,22.00
2023-05-07T11:10:05.657Z,21.80
2023-05-07T11:12:58.467Z,21.90
2023-05-07T11:15:44.242Z,22.00
2023-05-07T11:18:14.858Z,22.20
2023-05-07T11:20:57.785Z,22.30
2023-05-07T11:24:02.296Z,22.30
2023-05-07T11:26:32.045Z,22.50
2023-05-07T11:29:01.210Z,22.40
2023-05-07T11:31:30.948Z,22.50
2023-05-07T11:34:00.376Z,22.50
2023-05-07T11:36:33.499Z,22.60
2023-05-07T11:39:01.276Z,22.40
2023-05-07T11:41:36.965Z,22.30
2023-05-07T11:44:04.930Z,22.40
2023-05-07T11:46:32.849Z,22.30
2023-05-07T11:49:03.206Z,22.50
2023-05-07T11:51:32.054Z,22.60
2023-05-07T11:53:59.847Z,22.70
2023-05-07T11:56:28.273Z,22.80
2023-05-07T11:58:56.029Z,23.00
2023-05-07T12:01:23.819Z,22.80
2023-05-07T12:03:51.653Z,22.80
2023-05-07T12:06:21.054Z,22.80
2023-05-07T12:08:49.210Z,22.40
2023-05-07T12:11:23.659Z,22.50
2023-05-07T12:13:51.827Z,22.40
2023-05-07T12:16:20.231Z,22.40
2023-05-07T12:18:48.991Z,22.40
2023-05-07T12:21:18.227Z,22.50
2023-05-07T12:23:47.574Z,22.70
2023-05-07T12:26:15.735Z,22.90
2023-05-07T12:28:43.631Z,22.90
2023-05-07T12:31:11.569Z,23.00
2023-05-07T12:33:39.561Z,22.90
2023-05-07T12:36:09.308Z,23.00
2023-05-07T12:38:38.727Z,23.10
2023-05-07T12:41:09.127Z,23.20
2023-05-07T12:43:37.219Z,23.30
2023-05-07T12:46:07.451Z,23.30
2023-05-07T12:48:35.596Z,23.30
2023-05-07T12:51:04.130Z,23.00
2023-05-07T12:53:32.529Z,23.00
2023-05-07T12:56:01.652Z,23.10
2023-05-07T12:58:32.306Z,23.30
2023-05-07T13:01:02.749Z,23.20
2023-05-07T13:03:32.637Z,23.00
2023-05-07T13:06:02.083Z,22.80
2023-05-07T13:08:32.381Z,22.80
2023-05-07T13:11:04.154Z,22.80
2023-05-07T13:13:33.983Z,22.80
2023-05-07T13:16:02.888Z,22.80
2023-05-07T13:18:32.828Z,22.80
2023-05-07T13:21:02.092Z,22.90
2023-05-07T13:23:30.396Z,22.80
2023-05-07T13:25:58.524Z,22.80
2023-05-07T13:28:26.705Z,22.70
2023-05-07T13:30:56.277Z,22.60
2023-05-07T13:33:25.029Z,22.70
2023-05-07T13:35:52.821Z,22.80
2023-05-07T13:38:21.133Z,22.80
2023-05-07T13:40:49.962Z,23.00
2023-05-07T13:43:18.445Z,22.70
2023-05-07T13:45:46.526Z,22.70
2023-05-07T13:48:15.776Z,22.80
2023-05-07T13:50:43.755Z,22.80
2023-05-07T13:53:11.655Z,22.80
2023-05-07T13:55:39.565Z,22.70
2023-05-07T13:58:07.671Z,22.70
2023-05-07T14:00:35.815Z,22.60
2023-05-07T14:03:03.912Z,22.70
2023-05-07T14:05:34.103Z,22.70
2023-05-07T14:08:01.994Z,22.70
2023-05-07T14:10:29.975Z,22.70
2023-05-07T14:12:57.876Z,22.80
2023-05-07T14:15:25.726Z,22.70
2023-05-07T14:17:53.540Z,22.60
2023-05-07T14:20:22.339Z,22.50
2023-05-07T14:22:51.472Z,22.30
2023-05-07T14:25:19.716Z,22.20
2023-05-07T14:27:47.681Z,22.20
2023-05-07T14:30:15.686Z,22.00
2023-05-07T14:32:43.552Z,22.00
2023-05-07T14:35:11.593Z,21.90
2023-05-07T14:37:39.655Z,22.00
2023-05-07T14:40:10.751Z,22.10
2023-05-07T14:42:38.739Z,22.00
2023-05-07T14:45:07.592Z,22.00
2023-05-07T14:47:35.614Z,22.00
2023-05-07T14:50:03.570Z,22.10
2023-05-07T14:52:31.478Z,22.00
2023-05-07T14:54:59.337Z,21.80
2023-05-07T14:57:32.946Z,21.90
2023-05-07T15:00:01.000Z,21.70
2023-05-07T15:02:28.948Z,21.60
2023-05-07T15:04:56.865Z,21.60
2023-05-07T15:07:24.708Z,21.50
2023-05-07T15:09:52.685Z,21.50
2023-05-07T15:12:20.480Z,21.40
2023-05-07T15:14:49.689Z,21.40
2023-05-07T15:17:17.535Z,21.30
2023-05-07T15:19:45.305Z,21.20
2023-05-07T15:22:13.274Z,21.20
2023-05-07T15:24:41.885Z,21.30
2023-05-07T15:27:09.792Z,21.20
2023-05-07T15:29:38.012Z,21.10
2023-05-07T15:32:07.770Z,20.90
2023-05-07T15:34:35.655Z,20.90
2023-05-07T15:37:03.522Z,20.80
2023-05-07T15:39:32.356Z,20.80
2023-05-07T15:42:00.130Z,20.80
2023-05-07T15:44:28.324Z,20.50
2023-05-07T15:46:56.275Z,20.40
2023-05-07T15:49:25.521Z,20.40
2023-05-07T15:51:55.472Z,20.40
2023-05-07T15:54:24.049Z,20.40
2023-05-07T15:56:51.848Z,20.40
2023-05-07T15:59:20.098Z,20.40
2023-05-07T16:01:47.938Z,20.30
2023-05-07T16:04:15.884Z,20.20
2023-05-07T16:06:47.204Z,20.30
2023-05-07T16:09:16.615Z,20.30
2023-05-07T16:11:44.486Z,20.20
2023-05-07T16:14:12.585Z,20.10
2023-05-07T16:16:40.891Z,20.10
2023-05-07T16:19:09.360Z,20.10
2023-05-07T16:21:37.284Z,20.00
2023-05-07T16:24:06.833Z,20.10
2023-05-07T16:26:34.651Z,20.20
2023-05-07T16:29:02.915Z,20.10
2023-05-07T16:31:30.904Z,20.10
2023-05-07T16:33:58.769Z,20.10
2023-05-07T16:36:28.667Z,20.10
2023-05-07T16:38:56.680Z,20.10
2023-05-07T16:41:26.142Z,20.10
2023-05-07T16:43:54.028Z,20.10
2023-05-07T16:46:22.328Z,20.10
2023-05-07T16:48:50.276Z,20.10
2023-05-07T16:51:18.200Z,20.00
2023-05-07T16:53:46.044Z,20.00
2023-05-07T16:56:13.837Z,19.80
2023-05-07T16:58:43.075Z,19.90
2023-05-07T17:01:12.251Z,19.70
2023-05-07T17:03:40.605Z,19.60
2023-05-07T17:06:13.975Z,19.60
2023-05-07T17:08:43.057Z,19.60
2023-05-07T17:11:11.866Z,19.60
2023-05-07T17:13:41.030Z,19.60
2023-05-07T17:16:10.354Z,19.60
2023-05-07T17:18:38.265Z,19.60
2023-05-07T17:21:06.427Z,19.50
2023-05-07T17:23:34.200Z,19.50
2023-05-07T17:26:02.101Z,19.40
2023-05-07T17:28:30.422Z,19.40
2023-05-07T17:30:58.225Z,19.30
2023-05-07T17:33:27.471Z,19.20
2023-05-07T17:35:56.200Z,19.20
2023-05-07T17:38:24.156Z,19.20
2023-05-07T17:40:52.032Z,19.10
2023-05-07T17:43:19.860Z,19.10
2023-05-07T17:45:48.198Z,19.10
2023-05-07T17:48:16.102Z,19.10
2023-05-07T17:50:45.424Z,19.00
2023-05-07T17:53:13.223Z,18.90
2023-05-07T17:55:43.591Z,18.80
2023-05-07T17:58:11.595Z,18.80
2023-05-07T18:00:39.721Z,18.80
2023-05-07T18:03:07.650Z,18.70
2023-05-07T18:05:37.614Z,18.60
2023-05-07T18:08:08.023Z,18.60
2023-05-07T18:10:35.912Z,18.60
2023-05-07T18:13:03.880Z,18.60
2023-05-07T18:15:31.766Z,18.50
2023-05-07T18:17:59.604Z,18.50
2023-05-07T18:20:29.879Z,18.50
2023-05-07T18:22:57.862Z,18.40
2023-05-07T18:25:27.418Z,18.40
2023-05-07T18:27:55.565Z,18.30
2023-05-07T18:30:23.458Z,18.30
2023-05-07T18:32:51.279Z,18.30
2023-05-07T18:35:19.230Z,18.20
2023-05-07T18:37:47.091Z,18.20
2023-05-07T18:40:15.098Z,18.20
2023-05-07T18:42:44.885Z,18.10
2023-05-07T18:45:13.352Z,18.10
2023-05-07T18:47:41.260Z,18.00
2023-05-07T18:50:09.987Z,18.00
2023-05-07T18:52:37.992Z,17.90
2023-05-07T18:55:07.290Z,17.80
2023-05-07T18:57:35.329Z,17.80
2023-05-07T19:00:06.599Z,17.70
2023-05-07T19:02:34.585Z,17.80
2023-05-07T19:05:02.481Z,17.80
2023-05-07T19:07:30.747Z,17.70
2023-05-07T19:10:04.831Z,17.70
2023-05-07T19:12:34.193Z,17.60
2023-05-07T19:15:02.013Z,17.70
2023-05-07T19:17:31.549Z,17.70
2023-05-07T19:19:59.374Z,17.70
2023-05-07T19:22:27.276Z,17.60
2023-05-07T19:24:55.109Z,17.60
2023-05-07T19:27:23.035Z,17.60
2023-05-07T19:29:50.928Z,17.60
2023-05-07T19:32:20.079Z,17.60
2023-05-07T19:34:49.685Z,17.60
2023-05-07T19:37:17.583Z,17.50
2023-05-07T19:39:46.038Z,17.50
2023-05-07T19:42:14.081Z,17.60
2023-05-07T19:44:41.865Z,17.50
2023-05-07T19:47:09.695Z,17.40
2023-05-07T19:49:37.608Z,17.40
2023-05-07T19:52:07.136Z,17.40
2023-05-07T19:54:35.024Z,17.40
2023-05-07T19:57:03.179Z,17.40
2023-05-07T19:59:31.170Z,17.40
2023-05-07T20:01:59.027Z,17.30
2023-05-07T20:04:30.577Z,17.30
2023-05-07T20:06:58.427Z,17.20
2023-05-07T20:09:27.708Z,17.20
2023-05-07T20:11:56.543Z,17.10
2023-05-07T20:14:24.321Z,17.10
2023-05-07T20:16:52.084Z,17.10
2023-05-07T20:19:20.515Z,17.10
2023-05-07T20:21:48.319Z,17.10
2023-05-07T20:24:16.990Z,17.00
2023-05-07T20:26:46.219Z,17.00
2023-05-07T20:29:14.009Z,17.00
2023-05-07T20:31:42.418Z,16.90
2023-05-07T20:34:10.696Z,16.90
2023-05-07T20:36:38.590Z,16.80
2023-05-07T20:39:06.453Z,16.80
2023-05-07T20:41:34.331Z,16.80
2023-05-07T20:44:03.709Z,16.80
2023-05-07T20:46:31.645Z,16.80
2023-05-07T20:48:59.520Z,16.70
2023-05-07T20:51:27.576Z,16.70
2023-05-07T20:53:55.385Z,16.60
2023-05-07T20:56:23.227Z,16.70
2023-05-07T20:58:51.021Z,16.60
2023-05-07T21:01:20.366Z,16.60
2023-05-07T21:03:49.355Z,16.60
2023-05-07T21:06:17.161Z,16.50
2023-05-07T21:08:44.919Z,16.50
2023-05-07T21:11:13.013Z,16.50
2023-05-07T21:13:40.868Z,16.50
2023-05-07T21:16:09.992Z,16.50
2023-05-07T21:18:39.245Z,16.50
2023-05-07T21:21:09.132Z,16.50
2023-05-07T21:23:37.229Z,16.40
2023-05-07T21:26:05.220Z,16.40
2023-05-07T21:28:33.091Z,16.30
2023-05-07T21:31:00.949Z,16.30
2023-05-07T21:33:28.760Z,16.30
2023-05-07T21:35:57.934Z,16.30
2023-05-07T21:38:25.857Z,16.20
2023-05-07T21:40:53.666Z,16.30
2023-05-07T21:43:21.445Z,16.30
2023-05-07T21:45:49.209Z,16.20
2023-05-07T21:48:21.766Z,16.30
2023-05-07T21:50:49.856Z,16.20
2023-05-07T21:53:19.032Z,16.20
2023-05-07T21:55:46.904Z,16.20
2023-05-07T21:58:14.739Z,16.20
2023-05-07T22:00:42.565Z,16.10
2023-05-07T22:03:10.523Z,16.20
2023-05-07T22:05:38.375Z,16.20
2023-05-07T22:08:06.374Z,16.10
2023-05-07T22:10:35.568Z,16.10
2023-05-07T22:13:03.453Z,16.10
2023-05-07T22:15:32.646Z,16.00
2023-05-07T22:18:01.888Z,16.00
2023-05-07T22:20:29.948Z,16.00
2023-05-07T22:22:57.930Z,15.90
2023-05-07T22:25:26.203Z,16.00
2023-05-07T22:27:55.405Z,15.90
2023-05-07T22:30:23.172Z,15.90
2023-05-07T22:32:51.144Z,15.70
2023-05-07T22:35:19.173Z,15.80
2023-05-07T22:37:46.950Z,15.70
2023-05-07T22:40:15.170Z,15.70
2023-05-07T22:42:43.989Z,15.60
2023-05-07T22:45:13.373Z,15.70
2023-05-07T22:47:41.289Z,15.60
2023-05-07T22:50:09.925Z,15.60
2023-05-07T22:52:37.762Z,15.60
2023-05-07T22:55:06.344Z,15.50
2023-05-07T22:57:34.093Z,15.50
2023-05-07T23:00:01.928Z,15.60
2023-05-07T23:02:32.410Z,15.50
2023-05-07T23:05:01.604Z,15.50
2023-05-07T23:07:29.690Z,15.60
2023-05-07T23:09:57.754Z,15.60
2023-05-07T23:12:25.600Z,15.60
2023-05-07T23:14:53.353Z,15.60
2023-05-07T23:17:21.298Z,15.50
2023-05-07T23:19:50.531Z,15.50
2023-05-07T23:22:18.343Z,15.50
2023-05-07T23:24:46.097Z,15.50
2023-05-07T23:27:13.853Z,15.50
2023-05-07T23:29:41.606Z,15.60
2023-05-07T23:32:09.383Z,15.50
2023-05-07T23:34:37.176Z,15.40
2023-05-07T23:37:06.298Z,15.40
2023-05-07T23:39:34.088Z,15.40
2023-05-07T23:42:02.088Z,15.30
2023-05-07T23:44:29.857Z,15.30
2023-05-07T23:46:57.647Z,15.20
2023-05-07T23:49:25.522Z,15.20
2023-05-07T23:51:53.279Z,15.20
2023-05-07T23:54:22.518Z,15.20
2023-05-07T23:56:50.300Z,15.20
2023-05-07T23:59:18.297Z,15.20
